createdAt,value
2022-09-10T00:00:52.992Z,86.63
2022-09-10T00:01:53.007Z,86.43
2022-09-10T00:02:52.964Z,86.83
2022-09-10T00:03:52.940Z,86.83
2022-09-10T00:04:52.933Z,86.83
2022-09-10T00:05:52.950Z,87.14
2022-09-10T00:06:52.909Z,87.04
2022-09-10T00:07:52.900Z,86.77
2022-09-10T00:08:52.903Z,87.04
2022-09-10T00:09:52.878Z,86.77
2022-09-10T00:10:52.878Z,87.14
2022-09-10T00:11:52.863Z,87.04
2022-09-10T00:12:52.856Z,87.48
2022-09-10T00:13:52.840Z,87.48
2022-09-10T00:14:52.834Z,87.28
2022-09-10T00:15:52.921Z,87.08
2022-09-10T00:16:52.815Z,87.59
2022-09-10T00:17:52.810Z,87.38
2022-09-10T00:18:52.793Z,87.79
2022-09-10T00:19:52.780Z,87.48
2022-09-10T00:20:52.781Z,87.18
2022-09-10T00:21:52.786Z,87.18
2022-09-10T00:22:52.757Z,87.18
2022-09-10T00:23:52.754Z,87.08
2022-09-10T00:24:52.732Z,87.18
2022-09-10T00:25:52.749Z,87.22
2022-09-10T00:26:52.731Z,87.69
2022-09-10T00:27:52.707Z,87.79
2022-09-10T00:28:52.699Z,87.89
2022-09-10T00:29:52.687Z,87.79
2022-09-10T00:30:52.671Z,87.48
2022-09-10T00:31:52.696Z,87.38
2022-09-10T00:32:52.667Z,87.59
2022-09-10T00:33:52.645Z,87.48
2022-09-10T00:34:52.623Z,87.79
2022-09-10T00:35:52.622Z,87.83
2022-09-10T00:36:52.636Z,87.52
2022-09-10T00:37:52.607Z,87.93
2022-09-10T00:38:52.597Z,87.79
2022-09-10T00:39:52.612Z,87.48
2022-09-10T00:40:52.576Z,87.59
2022-09-10T00:41:53.584Z,88.03
2022-09-10T00:42:52.568Z,87.48
2022-09-10T00:43:52.546Z,88.03
2022-09-10T00:44:52.536Z,87.59
2022-09-10T00:45:52.628Z,87.73
2022-09-10T00:46:52.532Z,87.28
2022-09-10T00:47:52.509Z,87.89
2022-09-10T00:48:52.494Z,87.93
2022-09-10T00:49:52.486Z,87.63
2022-09-10T00:50:52.481Z,87.73
2022-09-10T00:51:52.489Z,87.22
2022-09-10T00:52:52.454Z,87.22
2022-09-10T00:53:52.447Z,87.32
2022-09-10T00:54:52.434Z,87.32
2022-09-10T00:55:52.446Z,87.89
2022-09-10T00:56:52.422Z,87.83
2022-09-10T00:57:52.415Z,87.93
2022-09-10T00:58:52.398Z,87.93
2022-09-10T00:59:52.386Z,87.52
2022-09-10T01:00:52.407Z,87.22
2022-09-10T01:01:52.395Z,87.12
2022-09-10T01:02:52.354Z,87.32
2022-09-10T01:03:52.347Z,87.63
2022-09-10T01:04:52.337Z,87.32
2022-09-10T01:05:52.347Z,87.63
2022-09-10T01:06:52.318Z,87.73
2022-09-10T01:07:52.302Z,87.83
2022-09-10T01:08:52.293Z,87.83
2022-09-10T01:09:52.286Z,87.83
2022-09-10T01:10:52.296Z,88.13
2022-09-10T01:11:52.267Z,87.63
2022-09-10T01:12:52.261Z,87.73
2022-09-10T01:13:52.246Z,88.07
2022-09-10T01:14:52.235Z,87.97
2022-09-10T01:15:52.284Z,87.87
2022-09-10T01:16:52.222Z,88.23
2022-09-10T01:17:52.201Z,88.28
2022-09-10T01:18:52.187Z,88.34
2022-09-10T01:19:52.189Z,88.38
2022-09-10T01:20:52.197Z,88.48
2022-09-10T01:21:52.165Z,88.38
2022-09-10T01:22:52.154Z,88.48
2022-09-10T01:23:52.147Z,88.58
2022-09-10T01:24:52.138Z,88.48
2022-09-10T01:25:52.138Z,88.68
2022-09-10T01:26:52.111Z,88.28
2022-09-10T01:27:52.110Z,88.68
2022-09-10T01:28:52.099Z,88.58
2022-09-10T01:29:52.114Z,88.78
2022-09-10T01:30:52.106Z,88.68
2022-09-10T01:31:52.084Z,88.18
2022-09-10T01:32:52.060Z,88.68
2022-09-10T01:33:52.047Z,88.58
2022-09-10T01:34:52.065Z,88.99
2022-09-10T01:35:52.041Z,89.19
2022-09-10T01:36:52.026Z,89.29
2022-09-10T01:37:52.035Z,88.89
2022-09-10T01:38:51.989Z,88.89
2022-09-10T01:39:52.041Z,88.68
2022-09-10T01:40:52.002Z,88.58
2022-09-10T01:41:51.966Z,89.09
2022-09-10T01:42:51.958Z,88.99
2022-09-10T01:43:51.954Z,88.99
2022-09-10T01:44:51.937Z,89.13
2022-09-10T01:45:51.988Z,89.13
2022-09-10T01:46:51.921Z,89.33
2022-09-10T01:47:51.914Z,89.50
2022-09-10T01:48:51.904Z,89.33
2022-09-10T01:49:51.894Z,89.13
2022-09-10T01:50:51.902Z,89.23
2022-09-10T01:51:51.870Z,89.43
2022-09-10T01:52:51.854Z,89.74
2022-09-10T01:53:51.855Z,89.13
2022-09-10T01:54:51.842Z,89.13
2022-09-10T01:55:51.844Z,89.13
2022-09-10T01:56:51.825Z,89.19
2022-09-10T01:57:51.808Z,89.23
2022-09-10T01:58:51.810Z,89.03
2022-09-10T01:59:51.793Z,88.93
2022-09-10T02:00:51.824Z,89.19
2022-09-10T02:01:51.784Z,88.99
2022-09-10T02:02:51.760Z,89.33
2022-09-10T02:03:51.751Z,89.19
2022-09-10T02:04:51.733Z,89.33
2022-09-10T02:05:51.747Z,89.09
2022-09-10T02:06:51.718Z,88.93
2022-09-10T02:07:51.715Z,89.59
2022-09-10T02:08:51.699Z,89.39
2022-09-10T02:09:51.680Z,89.39
2022-09-10T02:10:51.711Z,89.23
2022-09-10T02:11:51.675Z,89.29
2022-09-10T02:12:51.664Z,89.70
2022-09-10T02:13:51.649Z,89.70
2022-09-10T02:14:51.652Z,89.19
2022-09-10T02:15:51.650Z,89.70
2022-09-10T02:16:51.627Z,89.80
2022-09-10T02:17:51.610Z,90.14
2022-09-10T02:18:51.599Z,90.20
2022-09-10T02:19:51.594Z,89.90
2022-09-10T02:20:51.598Z,90.00
2022-09-10T02:21:51.569Z,90.11
2022-09-10T02:22:51.562Z,89.94
2022-09-10T02:23:51.552Z,89.90
2022-09-10T02:24:51.544Z,90.00
2022-09-10T02:25:51.549Z,89.90
2022-09-10T02:26:51.522Z,89.90
2022-09-10T02:27:51.505Z,90.00
2022-09-10T02:28:51.505Z,90.11
2022-09-10T02:29:51.488Z,89.90
2022-09-10T02:30:51.501Z,90.00
2022-09-10T02:31:51.507Z,89.80
2022-09-10T02:32:51.459Z,89.90
2022-09-10T02:33:51.446Z,90.00
2022-09-10T02:34:51.442Z,90.00
2022-09-10T02:35:51.453Z,90.00
2022-09-10T02:36:51.416Z,90.20
2022-09-10T02:37:52.402Z,90.00
2022-09-10T02:38:51.409Z,90.00
2022-09-10T02:39:51.428Z,90.00
2022-09-10T02:40:51.394Z,89.94
2022-09-10T02:41:51.366Z,89.70
2022-09-10T02:42:51.352Z,89.94
2022-09-10T02:43:51.347Z,89.80
2022-09-10T02:44:51.339Z,89.84
2022-09-10T02:45:51.376Z,89.74
2022-09-10T02:46:51.320Z,89.74
2022-09-10T02:47:51.306Z,89.84
2022-09-10T02:48:51.303Z,89.54
2022-09-10T02:49:51.278Z,89.70
2022-09-10T02:50:51.290Z,89.64
2022-09-10T02:51:51.263Z,89.74
2022-09-10T02:52:51.254Z,89.70
2022-09-10T02:53:51.243Z,89.54
2022-09-10T02:54:51.245Z,89.54
2022-09-10T02:55:51.248Z,89.54
2022-09-10T02:56:51.215Z,89.80
2022-09-10T02:57:51.197Z,89.70
2022-09-10T02:58:51.190Z,89.50
2022-09-10T02:59:51.184Z,89.70
2022-09-10T03:00:51.215Z,89.70
2022-09-10T03:01:51.201Z,89.70
2022-09-10T03:02:51.161Z,89.80
2022-09-10T03:03:51.181Z,89.80
2022-09-10T03:04:51.135Z,89.80
2022-09-10T03:05:51.137Z,90.11
2022-09-10T03:06:51.115Z,90.00
2022-09-10T03:07:51.110Z,90.00
2022-09-10T03:08:51.092Z,89.90
2022-09-10T03:09:51.085Z,90.31
2022-09-10T03:10:51.089Z,90.31
2022-09-10T03:11:51.067Z,90.11
2022-09-10T03:12:51.054Z,90.11
2022-09-10T03:13:51.044Z,89.80
2022-09-10T03:14:51.039Z,89.39
2022-09-10T03:15:51.043Z,89.19
2022-09-10T03:16:51.009Z,88.99
2022-09-10T03:17:50.994Z,89.19
2022-09-10T03:18:50.996Z,89.50
2022-09-10T03:19:50.989Z,88.44
2022-09-10T03:20:50.994Z,89.15
2022-09-10T03:21:50.966Z,88.95
2022-09-10T03:22:50.951Z,89.29
2022-09-10T03:23:50.954Z,89.09
2022-09-10T03:24:50.942Z,88.68
2022-09-10T03:25:50.947Z,88.99
2022-09-10T03:26:50.908Z,89.15
2022-09-10T03:27:50.900Z,89.04
2022-09-10T03:28:50.889Z,89.25
2022-09-10T03:29:50.878Z,88.95
2022-09-10T03:30:50.882Z,89.25
2022-09-10T03:31:50.907Z,89.04
2022-09-10T03:32:50.852Z,88.95
2022-09-10T03:33:50.846Z,89.25
2022-09-10T03:34:50.830Z,88.95
2022-09-10T03:35:50.844Z,88.95
2022-09-10T03:36:50.808Z,88.95
2022-09-10T03:37:50.801Z,89.25
2022-09-10T03:38:50.790Z,89.04
2022-09-10T03:39:50.808Z,88.95
2022-09-10T03:40:50.792Z,88.95
2022-09-10T03:41:50.748Z,89.15
2022-09-10T03:42:51.743Z,89.15
2022-09-10T03:43:50.742Z,88.95
2022-09-10T03:44:50.729Z,89.15
2022-09-10T03:45:50.764Z,88.89
2022-09-10T03:46:50.696Z,88.99
2022-09-10T03:47:50.697Z,89.09
2022-09-10T03:48:55.070Z,88.99
2022-09-10T03:49:51.680Z,89.39
2022-09-10T03:50:50.684Z,88.89
2022-09-10T03:51:50.669Z,88.89
2022-09-10T03:52:50.647Z,89.09
2022-09-10T03:53:50.639Z,89.03
2022-09-10T03:54:50.618Z,89.43
2022-09-10T03:55:50.627Z,90.00
2022-09-10T03:56:50.606Z,90.25
2022-09-10T03:57:50.590Z,90.14
2022-09-10T03:58:50.586Z,89.80
2022-09-10T03:59:50.579Z,89.94
2022-09-10T04:00:50.629Z,89.74
2022-09-10T04:01:50.596Z,89.64
2022-09-10T04:02:50.532Z,89.84
2022-09-10T04:03:50.538Z,89.74
2022-09-10T04:04:50.527Z,89.74
2022-09-10T04:05:50.538Z,89.74
2022-09-10T04:06:50.513Z,89.54
2022-09-10T04:07:50.493Z,89.74
2022-09-10T04:08:50.487Z,89.64
2022-09-10T04:09:50.478Z,89.64
2022-09-10T04:10:50.483Z,89.84
2022-09-10T04:11:50.456Z,90.19
2022-09-10T04:12:50.446Z,89.98
2022-09-10T04:13:50.436Z,90.09
2022-09-10T04:14:50.416Z,90.19
2022-09-10T04:15:50.434Z,90.39
2022-09-10T04:16:50.498Z,89.88
2022-09-10T04:17:50.399Z,90.45
2022-09-10T04:18:50.385Z,90.09
2022-09-10T04:19:50.373Z,90.29
2022-09-10T04:20:50.390Z,90.70
2022-09-10T04:21:50.368Z,90.70
2022-09-10T04:22:50.351Z,90.49
2022-09-10T04:23:50.335Z,90.70
2022-09-10T04:24:50.328Z,90.80
2022-09-10T04:25:50.315Z,91.14
2022-09-10T04:26:50.320Z,91.82
2022-09-10T04:27:50.305Z,91.82
2022-09-10T04:28:50.314Z,91.86
2022-09-10T04:29:50.281Z,91.61
2022-09-10T04:30:50.277Z,91.75
2022-09-10T04:31:50.320Z,91.45
2022-09-10T04:32:50.250Z,91.25
2022-09-10T04:33:50.233Z,90.94
2022-09-10T04:34:50.224Z,91.05
2022-09-10T04:35:50.220Z,91.25
2022-09-10T04:36:50.232Z,91.45
2022-09-10T04:37:50.203Z,91.45
2022-09-10T04:38:50.185Z,91.14
2022-09-10T04:39:50.212Z,91.65
2022-09-10T04:40:50.169Z,91.55
2022-09-10T04:41:50.182Z,91.55
2022-09-10T04:42:50.144Z,91.55
2022-09-10T04:43:50.143Z,91.65
2022-09-10T04:44:50.142Z,91.39
2022-09-10T04:45:50.153Z,91.96
2022-09-10T04:46:50.130Z,91.65
2022-09-10T04:48:22.501Z,91.55
2022-09-10T04:48:50.086Z,91.45
2022-09-10T04:49:50.077Z,91.25
2022-09-10T04:51:12.258Z,91.45
2022-09-10T04:51:52.082Z,91.75
2022-09-10T04:52:50.050Z,92.16
2022-09-10T04:53:50.040Z,91.55
2022-09-10T04:54:50.033Z,91.35
2022-09-10T04:55:50.024Z,92.16
2022-09-10T04:56:50.028Z,91.90
2022-09-10T04:57:50.003Z,92.16
2022-09-10T04:58:49.989Z,91.65
2022-09-10T04:59:49.984Z,91.65
2022-09-10T05:00:49.992Z,91.86
2022-09-10T05:01:50.004Z,91.86
2022-09-10T05:02:49.950Z,91.86
2022-09-10T05:03:49.942Z,92.06
2022-09-10T05:04:49.927Z,91.55
2022-09-10T05:05:49.920Z,91.65
2022-09-10T05:06:49.929Z,91.75
2022-09-10T05:07:49.897Z,91.55
2022-09-10T05:08:49.889Z,91.96
2022-09-10T05:09:49.880Z,91.96
2022-09-10T05:10:49.861Z,91.86
2022-09-10T05:11:49.879Z,92.06
2022-09-10T05:12:49.851Z,92.16
2022-09-10T05:13:49.841Z,92.36
2022-09-10T05:14:49.824Z,92.26
2022-09-10T05:15:49.815Z,92.22
2022-09-10T05:16:49.866Z,92.16
2022-09-10T05:17:49.797Z,92.16
2022-09-10T05:18:49.789Z,92.32
2022-09-10T05:19:49.782Z,91.91
2022-09-10T05:20:49.775Z,92.02
2022-09-10T05:21:49.760Z,92.12
2022-09-10T05:22:49.749Z,92.02
2022-09-10T05:23:49.744Z,91.47
2022-09-10T05:24:49.734Z,91.67
2022-09-10T05:25:49.718Z,91.67
2022-09-10T05:26:49.729Z,91.67
2022-09-10T05:27:49.700Z,91.56
2022-09-10T05:28:49.695Z,91.16
2022-09-10T05:29:49.684Z,91.36
2022-09-10T05:30:51.714Z,91.47
2022-09-10T05:31:50.721Z,91.12
2022-09-10T05:32:49.650Z,91.12
2022-09-10T05:33:49.641Z,91.32
2022-09-10T05:34:49.629Z,91.22
2022-09-10T05:35:49.629Z,91.63
2022-09-10T05:36:49.610Z,91.12
2022-09-10T05:37:49.613Z,90.31
2022-09-10T05:38:49.588Z,90.36
2022-09-10T05:39:49.634Z,89.76
2022-09-10T05:40:49.583Z,90.06
2022-09-10T05:41:49.561Z,89.65
2022-09-10T05:42:49.552Z,89.55
2022-09-10T05:43:49.550Z,89.81
2022-09-10T05:44:49.534Z,90.22
2022-09-10T05:45:49.586Z,89.61
2022-09-10T05:46:49.528Z,89.35
2022-09-10T05:47:49.506Z,88.90
2022-09-10T05:48:49.496Z,89.41
2022-09-10T05:49:49.482Z,88.80
2022-09-10T05:50:49.467Z,88.76
2022-09-10T05:51:49.478Z,88.66
2022-09-10T05:52:49.461Z,89.11
2022-09-10T05:53:49.432Z,88.76
2022-09-10T05:54:49.430Z,88.76
2022-09-10T05:55:49.430Z,88.46
2022-09-10T05:56:49.443Z,88.49
2022-09-10T05:57:49.403Z,88.56
2022-09-10T05:58:49.392Z,88.35
2022-09-10T05:59:49.386Z,88.15
2022-09-10T06:00:49.397Z,88.46
2022-09-10T06:01:49.394Z,88.35
2022-09-10T06:02:49.401Z,88.46
2022-09-10T06:03:49.350Z,88.15
2022-09-10T06:04:49.335Z,88.35
2022-09-10T06:05:49.332Z,88.35
2022-09-10T06:06:49.314Z,88.35
2022-09-10T06:07:49.302Z,88.25
2022-09-10T06:08:49.299Z,88.35
2022-09-10T06:09:49.282Z,88.35
2022-09-10T06:10:49.292Z,88.11
2022-09-10T06:11:49.267Z,88.31
2022-09-10T06:12:49.259Z,88.15
2022-09-10T06:13:49.232Z,88.05
2022-09-10T06:14:49.234Z,87.74
2022-09-10T06:15:49.256Z,87.45
2022-09-10T06:16:49.271Z,87.40
2022-09-10T06:17:49.204Z,87.45
2022-09-10T06:18:49.206Z,87.54
2022-09-10T06:19:49.191Z,87.54
2022-09-10T06:20:49.212Z,87.40
2022-09-10T06:21:49.173Z,87.30
2022-09-10T06:22:49.160Z,87.51
2022-09-10T06:23:49.149Z,87.40
2022-09-10T06:24:49.142Z,87.71
2022-09-10T06:25:49.151Z,87.60
2022-09-10T06:26:49.124Z,87.51
2022-09-10T06:27:49.104Z,87.20
2022-09-10T06:28:49.102Z,87.30
2022-09-10T06:29:49.094Z,87.30
2022-09-10T06:30:49.177Z,87.40
2022-09-10T06:31:49.070Z,87.20
2022-09-10T06:32:49.063Z,86.69
2022-09-10T06:33:49.082Z,87.00
2022-09-10T06:34:49.039Z,86.69
2022-09-10T06:35:53.166Z,86.90
2022-09-10T06:36:50.024Z,87.30
2022-09-10T06:37:49.006Z,87.40
2022-09-10T06:38:49.005Z,87.46
2022-09-10T06:39:49.009Z,87.46
2022-09-10T06:40:48.992Z,87.60
2022-09-10T06:41:49.866Z,87.66
2022-09-10T06:42:48.962Z,87.77
2022-09-10T06:43:49.948Z,88.01
2022-09-10T06:44:48.941Z,88.21
2022-09-10T06:45:49.054Z,88.62
2022-09-10T06:47:25.851Z,88.82
2022-09-10T06:48:51.328Z,88.92
2022-09-10T06:49:48.944Z,88.62
2022-09-10T06:50:48.914Z,90.28
2022-09-10T06:51:48.869Z,89.47
2022-09-10T06:52:48.860Z,89.47
2022-09-10T06:53:48.849Z,90.18
2022-09-10T06:54:48.839Z,89.98
2022-09-10T06:55:48.841Z,90.38
2022-09-10T06:56:48.817Z,90.38
2022-09-10T06:57:48.809Z,90.38
2022-09-10T06:58:48.801Z,91.54
2022-09-10T06:59:48.787Z,91.03
2022-09-10T07:00:48.825Z,90.99
2022-09-10T07:01:48.806Z,91.09
2022-09-10T07:02:48.761Z,91.09
2022-09-10T07:03:48.748Z,90.89
2022-09-10T07:04:48.741Z,91.30
2022-09-10T07:05:48.743Z,90.99
2022-09-10T07:06:48.716Z,91.09
2022-09-10T07:07:48.708Z,91.80
2022-09-10T07:08:48.697Z,91.80
2022-09-10T07:09:48.686Z,91.60
2022-09-10T07:10:48.696Z,91.94
2022-09-10T07:11:48.667Z,91.90
2022-09-10T07:12:48.668Z,92.14
2022-09-10T07:13:48.649Z,91.90
2022-09-10T07:14:48.624Z,92.00
2022-09-10T07:15:48.681Z,92.10
2022-09-10T07:16:48.612Z,92.31
2022-09-10T07:17:48.599Z,92.00
2022-09-10T07:18:48.596Z,92.21
2022-09-10T07:19:48.588Z,92.31
2022-09-10T07:20:48.593Z,91.80
2022-09-10T07:21:48.559Z,91.90
2022-09-10T07:22:48.555Z,91.96
2022-09-10T07:23:48.542Z,91.66
2022-09-10T07:24:48.537Z,92.16
2022-09-10T07:25:48.547Z,91.86
2022-09-10T07:26:48.523Z,91.86
2022-09-10T07:27:48.509Z,91.75
2022-09-10T07:28:48.499Z,91.92
2022-09-10T07:29:48.492Z,91.61
2022-09-10T07:30:48.555Z,91.41
2022-09-10T07:31:48.470Z,91.41
2022-09-10T07:32:48.465Z,91.20
2022-09-10T07:33:48.439Z,90.80
2022-09-10T07:34:48.442Z,90.91
2022-09-10T07:35:48.453Z,90.91
2022-09-10T07:36:48.464Z,90.76
2022-09-10T07:37:48.411Z,90.60
2022-09-10T07:38:48.402Z,90.45
2022-09-10T07:39:48.430Z,91.27
2022-09-10T07:40:48.398Z,91.27
2022-09-10T07:41:48.364Z,90.76
2022-09-10T07:42:48.360Z,90.45
2022-09-10T07:43:48.342Z,91.06
2022-09-10T07:44:48.344Z,90.52
2022-09-10T07:45:48.389Z,89.91
2022-09-10T07:46:48.316Z,89.85
2022-09-10T07:47:48.304Z,89.70
2022-09-10T07:48:48.300Z,90.21
2022-09-10T07:49:48.285Z,89.30
2022-09-10T07:50:48.287Z,89.40
2022-09-10T07:51:48.267Z,89.30
2022-09-10T07:52:48.263Z,88.79
2022-09-10T07:53:50.874Z,88.59
2022-09-10T07:54:49.232Z,88.45
2022-09-10T07:55:48.236Z,88.75
2022-09-10T07:56:48.214Z,88.75
2022-09-10T07:57:48.188Z,88.85
2022-09-10T07:58:48.202Z,88.35
2022-09-10T07:59:48.187Z,88.45
2022-09-10T08:00:48.187Z,88.65
2022-09-10T08:01:48.189Z,88.85
2022-09-10T08:02:48.157Z,88.15
2022-09-10T08:03:48.144Z,88.25
2022-09-10T08:04:48.135Z,88.15
2022-09-10T08:05:48.139Z,87.95
2022-09-10T08:06:48.112Z,88.04
2022-09-10T08:07:48.107Z,87.90
2022-09-10T08:08:48.090Z,87.81
2022-09-10T08:09:48.079Z,87.64
2022-09-10T08:10:48.087Z,87.60
2022-09-10T08:11:48.063Z,87.81
2022-09-10T08:12:48.052Z,87.90
2022-09-10T08:13:48.039Z,87.30
2022-09-10T08:14:48.031Z,87.19
2022-09-10T08:15:48.121Z,86.99
2022-09-10T08:16:48.008Z,86.99
2022-09-10T08:17:48.000Z,86.69
2022-09-10T08:18:47.985Z,86.59
2022-09-10T08:19:47.988Z,86.55
2022-09-10T08:20:48.067Z,86.04
2022-09-10T08:21:47.961Z,85.94
2022-09-10T08:22:47.948Z,85.64
2022-09-10T08:23:47.960Z,85.60
2022-09-10T08:24:47.930Z,84.99
2022-09-10T08:25:47.934Z,84.89
2022-09-10T08:26:47.909Z,84.59
2022-09-10T08:27:47.907Z,84.45
2022-09-10T08:28:47.926Z,84.55
2022-09-10T08:29:47.886Z,84.45
2022-09-10T08:30:47.958Z,84.25
2022-09-10T08:31:47.859Z,83.95
2022-09-10T08:32:47.847Z,84.05
2022-09-10T08:33:47.840Z,83.74
2022-09-10T08:34:47.831Z,83.95
2022-09-10T08:35:47.838Z,83.70
2022-09-10T08:36:47.816Z,83.84
2022-09-10T08:37:47.805Z,84.05
2022-09-10T08:38:47.791Z,84.25
2022-09-10T08:39:47.892Z,82.93
2022-09-10T08:40:47.789Z,83.54
2022-09-10T08:41:47.758Z,83.34
2022-09-10T08:42:47.748Z,82.93
2022-09-10T08:43:47.742Z,83.04
2022-09-10T08:44:47.733Z,82.93
2022-09-10T08:45:47.771Z,83.34
2022-09-10T08:46:47.705Z,83.24
2022-09-10T08:47:47.700Z,83.34
2022-09-10T08:48:47.689Z,83.34
2022-09-10T08:49:47.669Z,83.04
2022-09-10T08:50:47.697Z,83.04
2022-09-10T08:51:47.659Z,83.38
2022-09-10T08:52:47.645Z,83.18
2022-09-10T08:53:47.637Z,84.09
2022-09-10T08:54:47.635Z,84.09
2022-09-10T08:55:49.012Z,84.19
2022-09-10T08:56:48.621Z,83.18
2022-09-10T08:57:47.612Z,83.01
2022-09-10T08:58:47.597Z,84.29
2022-09-10T08:59:47.584Z,84.33
2022-09-10T09:00:47.597Z,83.22
2022-09-10T09:01:47.800Z,83.72
2022-09-10T09:02:49.712Z,83.92
2022-09-10T09:03:48.552Z,83.72
2022-09-10T09:04:47.542Z,83.96
2022-09-10T09:05:47.551Z,84.23
2022-09-10T09:06:47.520Z,84.27
2022-09-10T09:07:47.513Z,83.96
2022-09-10T09:08:47.526Z,84.03
2022-09-10T09:09:47.490Z,84.12
2022-09-10T09:10:47.506Z,84.12
2022-09-10T09:11:47.472Z,84.03
2022-09-10T09:12:47.471Z,84.23
2022-09-10T09:13:47.721Z,83.92
2022-09-10T09:14:47.445Z,84.12
2022-09-10T09:15:47.500Z,84.43
2022-09-10T09:16:47.422Z,83.12
2022-09-10T09:17:47.435Z,82.81
2022-09-10T09:18:47.418Z,83.32
2022-09-10T09:19:47.410Z,82.61
2022-09-10T09:20:47.408Z,82.87
2022-09-10T09:21:47.369Z,82.67
2022-09-10T09:22:47.410Z,82.47
2022-09-10T09:24:09.333Z,82.57
2022-09-10T09:24:49.348Z,82.57
2022-09-10T09:25:47.401Z,82.13
2022-09-10T09:26:47.324Z,82.13
2022-09-10T09:27:47.312Z,81.18
2022-09-10T09:28:47.297Z,81.52
2022-09-10T09:29:47.292Z,81.22
2022-09-10T09:30:47.374Z,81.48
2022-09-10T09:31:47.270Z,81.55
2022-09-10T09:32:47.291Z,80.44
2022-09-10T09:33:47.250Z,80.04
2022-09-10T09:34:47.243Z,79.23
2022-09-10T09:35:47.247Z,80.10
2022-09-10T09:36:47.222Z,79.29
2022-09-10T09:37:47.214Z,78.99
2022-09-10T09:38:47.204Z,78.89
2022-09-10T09:39:47.224Z,78.49
2022-09-10T09:40:47.210Z,78.39
2022-09-10T09:41:47.176Z,78.59
2022-09-10T09:42:47.163Z,77.84
2022-09-10T09:43:47.157Z,77.44
2022-09-10T09:44:47.149Z,77.64
2022-09-10T09:45:47.216Z,77.11
2022-09-10T09:46:47.119Z,76.30
2022-09-10T09:47:47.108Z,76.80
2022-09-10T09:48:47.094Z,76.80
2022-09-10T09:49:47.081Z,76.80
2022-09-10T09:50:47.095Z,76.60
2022-09-10T09:51:47.076Z,76.14
2022-09-10T09:52:47.053Z,76.20
2022-09-10T09:53:49.425Z,76.50
2022-09-10T09:55:13.297Z,76.20
2022-09-10T09:55:49.032Z,76.50
2022-09-10T09:56:47.019Z,76.20
2022-09-10T09:57:47.013Z,75.90
2022-09-10T09:58:47.004Z,76.20
2022-09-10T09:59:47.017Z,76.30
2022-09-10T10:00:46.980Z,75.96
2022-09-10T10:01:47.125Z,75.46
2022-09-10T10:02:46.956Z,75.39
2022-09-10T10:03:46.951Z,75.15
2022-09-10T10:04:46.967Z,74.35
2022-09-10T10:05:46.946Z,75.09
2022-09-10T10:06:46.925Z,75.46
2022-09-10T10:07:46.913Z,74.95
2022-09-10T10:08:46.899Z,73.98
2022-09-10T10:09:46.906Z,75.23
2022-09-10T10:10:46.902Z,74.99
2022-09-10T10:11:46.869Z,74.49
2022-09-10T10:12:46.858Z,74.49
2022-09-10T10:13:46.852Z,74.42
2022-09-10T10:14:46.840Z,75.02
2022-09-10T10:15:46.881Z,74.79
2022-09-10T10:16:46.820Z,74.93
2022-09-10T10:17:46.811Z,75.02
2022-09-10T10:18:46.799Z,74.89
2022-09-10T10:19:46.815Z,75.29
2022-09-10T10:20:46.785Z,74.89
2022-09-10T10:21:46.774Z,74.38
2022-09-10T10:22:46.763Z,74.29
2022-09-10T10:23:46.753Z,74.99
2022-09-10T10:24:46.763Z,74.75
2022-09-10T10:25:46.734Z,74.32
2022-09-10T10:26:46.726Z,73.31
2022-09-10T10:27:46.717Z,73.81
2022-09-10T10:28:46.708Z,74.21
2022-09-10T10:29:46.702Z,72.77
2022-09-10T10:30:46.732Z,72.30
2022-09-10T10:31:46.677Z,72.57
2022-09-10T10:32:46.667Z,72.77
2022-09-10T10:33:46.651Z,72.74
2022-09-10T10:34:46.666Z,72.33
2022-09-10T10:35:46.697Z,72.03
2022-09-10T10:36:46.626Z,71.63
2022-09-10T10:37:46.662Z,71.23
2022-09-10T10:38:46.638Z,70.83
2022-09-10T10:39:46.728Z,71.70
2022-09-10T10:40:46.586Z,70.59
2022-09-10T10:41:46.571Z,71.30
2022-09-10T10:42:46.569Z,70.59
2022-09-10T10:43:46.560Z,70.79
2022-09-10T10:44:46.561Z,70.76
2022-09-10T10:45:46.547Z,70.73
2022-09-10T10:46:46.668Z,70.32
2022-09-10T10:47:46.528Z,68.62
2022-09-10T10:48:46.527Z,68.52
2022-09-10T10:49:46.520Z,69.02
2022-09-10T10:50:52.206Z,68.02
2022-09-10T10:51:48.488Z,67.92
2022-09-10T10:52:46.482Z,68.12
2022-09-10T10:55:18.376Z,66.78
2022-09-10T10:55:46.447Z,66.61
2022-09-10T10:56:46.430Z,66.61
2022-09-10T10:57:46.427Z,66.91
2022-09-10T10:58:46.550Z,67.02
2022-09-10T10:59:46.414Z,66.85
2022-09-10T11:00:46.421Z,67.35
2022-09-10T11:01:46.537Z,68.35
2022-09-10T11:02:46.464Z,68.02
2022-09-10T11:03:46.377Z,68.32
2022-09-10T11:04:46.360Z,66.91
2022-09-10T11:05:46.371Z,67.61
2022-09-10T11:06:46.344Z,67.18
2022-09-10T11:07:46.333Z,67.18
2022-09-10T11:08:46.317Z,66.08
2022-09-10T11:09:46.319Z,65.98
2022-09-10T11:10:46.320Z,66.21
2022-09-10T11:11:46.288Z,67.35
2022-09-10T11:12:46.352Z,68.12
2022-09-10T11:13:46.272Z,67.52
2022-09-10T11:14:46.260Z,67.45
2022-09-10T11:15:46.326Z,67.61
2022-09-10T11:16:46.235Z,67.72
2022-09-10T11:17:46.226Z,66.58
2022-09-10T11:18:46.222Z,66.38
2022-09-10T11:19:46.218Z,66.68
2022-09-10T11:20:46.218Z,66.08
2022-09-10T11:21:46.193Z,65.88
2022-09-10T11:22:46.194Z,66.25
2022-09-10T11:23:46.173Z,66.15
2022-09-10T11:24:46.186Z,65.85
2022-09-10T11:25:46.173Z,66.35
2022-09-10T11:26:46.145Z,66.55
2022-09-10T11:27:46.137Z,66.22
2022-09-10T11:28:46.121Z,65.62
2022-09-10T11:29:46.121Z,65.39
2022-09-10T11:30:46.145Z,64.28
2022-09-10T11:31:46.092Z,63.89
2022-09-10T11:32:46.076Z,63.06
2022-09-10T11:33:46.078Z,62.85
2022-09-10T11:34:46.076Z,62.75
2022-09-10T11:35:46.071Z,62.52
2022-09-10T11:36:46.033Z,62.59
2022-09-10T11:37:46.043Z,62.42
2022-09-10T11:38:46.025Z,62.65
2022-09-10T11:39:46.076Z,62.55
2022-09-10T11:40:46.016Z,63.51
2022-09-10T11:41:46.007Z,64.84
2022-09-10T11:42:45.994Z,66.38
2022-09-10T11:43:45.983Z,66.78
2022-09-10T11:44:45.972Z,66.65
2022-09-10T11:45:45.983Z,65.99
2022-09-10T11:46:45.954Z,65.99
2022-09-10T11:47:45.950Z,65.69
2022-09-10T11:48:45.935Z,64.75
2022-09-10T11:49:45.928Z,62.75
2022-09-10T11:50:45.933Z,61.78
2022-09-10T11:51:45.897Z,62.01
2022-09-10T11:52:46.891Z,63.34
2022-09-10T11:53:45.890Z,63.64
2022-09-10T11:54:45.874Z,62.84
2022-09-10T11:55:45.891Z,64.25
2022-09-10T11:56:45.856Z,64.84
2022-09-10T11:57:45.853Z,64.31
2022-09-10T11:58:45.844Z,63.08
2022-09-10T11:59:45.820Z,64.09
2022-09-10T12:00:45.837Z,63.48
2022-09-10T12:01:45.815Z,62.81
2022-09-10T12:02:46.796Z,65.25
2022-09-10T12:03:45.801Z,65.48
2022-09-10T12:04:47.642Z,66.18
2022-09-10T12:05:46.795Z,66.21
2022-09-10T12:06:45.752Z,66.01
2022-09-10T12:07:45.744Z,66.21
2022-09-10T12:08:45.745Z,65.98
2022-09-10T12:09:45.720Z,66.11
2022-09-10T12:10:45.726Z,66.55
2022-09-10T12:11:45.707Z,66.08
2022-09-10T12:12:45.692Z,66.88
2022-09-10T12:13:45.687Z,67.41
2022-09-10T12:14:45.678Z,67.51
2022-09-10T12:15:45.716Z,68.32
2022-09-10T12:16:45.660Z,71.26
2022-09-10T12:17:45.637Z,74.99
2022-09-10T12:18:45.639Z,80.80
2022-09-10T12:19:45.628Z,82.73
2022-09-10T12:20:45.743Z,85.50
2022-09-10T12:21:45.608Z,87.21
2022-09-10T12:22:45.593Z,86.95
2022-09-10T12:23:45.591Z,88.06
2022-09-10T12:24:45.589Z,87.92
2022-09-10T12:25:45.576Z,88.32
2022-09-10T12:26:45.563Z,86.97
2022-09-10T12:27:45.561Z,87.07
2022-09-10T12:28:45.533Z,86.13
2022-09-10T12:29:45.524Z,86.08
2022-09-10T12:30:45.586Z,86.35
2022-09-10T12:31:45.502Z,86.10
2022-09-10T12:32:45.490Z,85.56
2022-09-10T12:33:46.485Z,83.54
2022-09-10T12:34:45.481Z,81.93
2022-09-10T12:35:45.491Z,81.33
2022-09-10T12:36:45.466Z,80.63
2022-09-10T12:37:45.449Z,80.32
2022-09-10T12:38:45.440Z,80.49
2022-09-10T12:39:45.457Z,79.68
2022-09-10T12:40:45.437Z,79.28
2022-09-10T12:41:45.410Z,79.35
2022-09-10T12:42:45.406Z,79.38
2022-09-10T12:43:45.392Z,80.29
2022-09-10T12:44:45.385Z,80.05
2022-09-10T12:45:45.385Z,79.85
2022-09-10T12:46:45.367Z,78.44
2022-09-10T12:47:45.353Z,77.97
2022-09-10T12:48:45.338Z,77.83
2022-09-10T12:49:45.343Z,77.73
2022-09-10T12:50:45.337Z,76.63
2022-09-10T12:51:45.313Z,75.12
2022-09-10T12:52:45.308Z,74.72
2022-09-10T12:53:45.293Z,74.62
2022-09-10T12:54:45.283Z,75.49